sensor_id;sensor_type;location;lat;lon;timestamp;temperature;humidity
18807;DHT22;9531;52.030;4.380;2022-09-09T00:01:54;17.30;99.90
18807;DHT22;9531;52.030;4.380;2022-09-09T00:04:28;17.30;99.90
18807;DHT22;9531;52.030;4.380;2022-09-09T00:07:01;17.30;99.90
18807;DHT22;9531;52.030;4.380;2022-09-09T00:09:34;17.30;99.90
18807;DHT22;9531;52.030;4.380;2022-09-09T00:12:10;17.30;99.90
18807;DHT22;9531;52.030;4.380;2022-09-09T00:14:45;17.20;99.90
18807;DHT22;9531;52.030;4.380;2022-09-09T00:17:21;17.20;99.90
18807;DHT22;9531;52.030;4.380;2022-09-09T00:19:58;17.20;99.90
18807;DHT22;9531;52.030;4.380;2022-09-09T00:22:30;17.10;99.90
18807;DHT22;9531;52.030;4.380;2022-09-09T00:25:06;17.10;99.90
18807;DHT22;9531;52.030;4.380;2022-09-09T00:27:40;17.10;99.90
18807;DHT22;9531;52.030;4.380;2022-09-09T00:30:15;17.10;99.90
18807;DHT22;9531;52.030;4.380;2022-09-09T00:32:45;17.00;99.90
18807;DHT22;9531;52.030;4.380;2022-09-09T00:35:22;17.10;99.90
18807;DHT22;9531;52.030;4.380;2022-09-09T00:37:53;17.10;99.90
18807;DHT22;9531;52.030;4.380;2022-09-09T00:40:24;17.00;99.90
18807;DHT22;9531;52.030;4.380;2022-09-09T00:43:03;17.00;99.90
18807;DHT22;9531;52.030;4.380;2022-09-09T00:48:38;17.00;99.90
18807;DHT22;9531;52.030;4.380;2022-09-09T00:51:15;16.90;99.90
18807;DHT22;9531;52.030;4.380;2022-09-09T00:54:03;16.90;99.90
18807;DHT22;9531;52.030;4.380;2022-09-09T00:56:37;16.80;99.90
18807;DHT22;9531;52.030;4.380;2022-09-09T00:59:16;16.80;99.90
18807;DHT22;9531;52.030;4.380;2022-09-09T01:01:47;16.80;99.90
18807;DHT22;9531;52.030;4.380;2022-09-09T01:04:20;16.70;99.90
18807;DHT22;9531;52.030;4.380;2022-09-09T01:06:58;16.70;99.90
18807;DHT22;9531;52.030;4.380;2022-09-09T01:09:33;16.70;99.90
18807;DHT22;9531;52.030;4.380;2022-09-09T01:12:10;16.70;99.90
18807;DHT22;9531;52.030;4.380;2022-09-09T01:14:43;16.60;99.90
18807;DHT22;9531;52.030;4.380;2022-09-09T01:17:14;16.60;99.90
18807;DHT22;9531;52.030;4.380;2022-09-09T01:19:54;16.60;99.90
18807;DHT22;9531;52.030;4.380;2022-09-09T01:22:35;16.60;99.90
18807;DHT22;9531;52.030;4.380;2022-09-09T01:25:28;16.50;99.90
18807;DHT22;9531;52.030;4.380;2022-09-09T01:28:00;16.50;99.90
18807;DHT22;9531;52.030;4.380;2022-09-09T01:30:28;16.50;99.90
18807;DHT22;9531;52.030;4.380;2022-09-09T01:32:56;16.50;99.90
18807;DHT22;9531;52.030;4.380;2022-09-09T01:35:37;16.40;99.90
18807;DHT22;9531;52.030;4.380;2022-09-09T01:38:06;16.40;99.90
18807;DHT22;9531;52.030;4.380;2022-09-09T01:40:33;16.40;99.90
18807;DHT22;9531;52.030;4.380;2022-09-09T01:43:03;16.30;99.90
18807;DHT22;9531;52.030;4.380;2022-09-09T01:45:30;16.30;99.90
18807;DHT22;9531;52.030;4.380;2022-09-09T01:47:58;16.30;99.90
18807;DHT22;9531;52.030;4.380;2022-09-09T01:50:28;16.30;99.90
18807;DHT22;9531;52.030;4.380;2022-09-09T01:52:58;16.20;99.90
18807;DHT22;9531;52.030;4.380;2022-09-09T01:55:30;16.20;99.90
18807;DHT22;9531;52.030;4.380;2022-09-09T01:58:11;16.20;99.90
18807;DHT22;9531;52.030;4.380;2022-09-09T02:00:44;16.20;99.90
18807;DHT22;9531;52.030;4.380;2022-09-09T02:03:19;16.20;99.90
18807;DHT22;9531;52.030;4.380;2022-09-09T02:05:55;16.20;99.90
18807;DHT22;9531;52.030;4.380;2022-09-09T02:08:31;16.20;99.90
18807;DHT22;9531;52.030;4.380;2022-09-09T02:11:03;16.20;99.90
18807;DHT22;9531;52.030;4.380;2022-09-09T02:13:35;16.10;99.90
18807;DHT22;9531;52.030;4.380;2022-09-09T02:16:07;16.10;99.90
18807;DHT22;9531;52.030;4.380;2022-09-09T02:18:37;16.20;99.90
18807;DHT22;9531;52.030;4.380;2022-09-09T02:21:06;16.10;99.90
18807;DHT22;9531;52.030;4.380;2022-09-09T02:23:34;16.10;99.90
18807;DHT22;9531;52.030;4.380;2022-09-09T02:26:02;16.10;99.90
18807;DHT22;9531;52.030;4.380;2022-09-09T02:28:33;16.10;99.90
18807;DHT22;9531;52.030;4.380;2022-09-09T02:31:01;16.10;99.90
18807;DHT22;9531;52.030;4.380;2022-09-09T02:33:33;16.10;99.90
18807;DHT22;9531;52.030;4.380;2022-09-09T02:36:02;16.10;99.90
18807;DHT22;9531;52.030;4.380;2022-09-09T02:38:35;16.10;99.90
18807;DHT22;9531;52.030;4.380;2022-09-09T02:41:03;16.20;99.90
18807;DHT22;9531;52.030;4.380;2022-09-09T02:43:33;16.10;99.90
18807;DHT22;9531;52.030;4.380;2022-09-09T02:46:07;16.10;99.90
18807;DHT22;9531;52.030;4.380;2022-09-09T02:48:44;16.10;99.90
18807;DHT22;9531;52.030;4.380;2022-09-09T02:51:18;16.10;99.90
18807;DHT22;9531;52.030;4.380;2022-09-09T02:53:50;16.10;99.90
18807;DHT22;9531;52.030;4.380;2022-09-09T02:56:22;16.10;99.90
18807;DHT22;9531;52.030;4.380;2022-09-09T02:58:51;16.10;99.90
18807;DHT22;9531;52.030;4.380;2022-09-09T03:01:18;16.10;99.90
18807;DHT22;9531;52.030;4.380;2022-09-09T03:03:45;16.10;99.90
18807;DHT22;9531;52.030;4.380;2022-09-09T03:06:12;16.10;99.90
18807;DHT22;9531;52.030;4.380;2022-09-09T03:08:40;16.00;99.90
18807;DHT22;9531;52.030;4.380;2022-09-09T03:11:07;16.00;99.90
18807;DHT22;9531;52.030;4.380;2022-09-09T03:13:35;16.00;99.90
18807;DHT22;9531;52.030;4.380;2022-09-09T03:16:05;16.00;99.90
18807;DHT22;9531;52.030;4.380;2022-09-09T03:18:32;16.00;99.90
18807;DHT22;9531;52.030;4.380;2022-09-09T03:21:00;16.00;99.90
18807;DHT22;9531;52.030;4.380;2022-09-09T03:23:27;16.00;99.90
18807;DHT22;9531;52.030;4.380;2022-09-09T03:25:55;16.00;99.90
18807;DHT22;9531;52.030;4.380;2022-09-09T03:28:24;16.00;99.90
18807;DHT22;9531;52.030;4.380;2022-09-09T03:30:59;15.90;99.90
18807;DHT22;9531;52.030;4.380;2022-09-09T03:33:27;15.90;99.90
18807;DHT22;9531;52.030;4.380;2022-09-09T03:35:55;15.90;99.90
18807;DHT22;9531;52.030;4.380;2022-09-09T03:38:22;15.90;99.90
18807;DHT22;9531;52.030;4.380;2022-09-09T03:40:50;15.90;99.90
18807;DHT22;9531;52.030;4.380;2022-09-09T03:43:20;15.90;99.90
18807;DHT22;9531;52.030;4.380;2022-09-09T03:45:47;15.90;99.90
18807;DHT22;9531;52.030;4.380;2022-09-09T03:48:15;15.90;99.90
18807;DHT22;9531;52.030;4.380;2022-09-09T03:50:45;15.90;99.90
18807;DHT22;9531;52.030;4.380;2022-09-09T03:53:14;15.90;99.90
18807;DHT22;9531;52.030;4.380;2022-09-09T03:55:44;15.90;99.90
18807;DHT22;9531;52.030;4.380;2022-09-09T03:58:12;15.90;99.90
18807;DHT22;9531;52.030;4.380;2022-09-09T04:00:39;15.90;99.90
18807;DHT22;9531;52.030;4.380;2022-09-09T04:03:08;15.90;99.90
18807;DHT22;9531;52.030;4.380;2022-09-09T04:05:35;15.90;99.90
18807;DHT22;9531;52.030;4.380;2022-09-09T04:08:06;15.90;99.90
18807;DHT22;9531;52.030;4.380;2022-09-09T04:10:33;15.90;99.90
18807;DHT22;9531;52.030;4.380;2022-09-09T04:13:02;15.80;99.90
18807;DHT22;9531;52.030;4.380;2022-09-09T04:15:29;15.80;99.90
18807;DHT22;9531;52.030;4.380;2022-09-09T04:17:57;15.90;99.90
18807;DHT22;9531;52.030;4.380;2022-09-09T04:20:24;15.90;99.90
18807;DHT22;9531;52.030;4.380;2022-09-09T04:22:51;15.80;99.90
18807;DHT22;9531;52.030;4.380;2022-09-09T04:25:19;15.80;99.90
18807;DHT22;9531;52.030;4.380;2022-09-09T04:27:47;15.80;99.90
18807;DHT22;9531;52.030;4.380;2022-09-09T04:30:16;15.80;99.90
18807;DHT22;9531;52.030;4.380;2022-09-09T04:32:43;15.80;99.90
18807;DHT22;9531;52.030;4.380;2022-09-09T04:35:10;15.80;99.90
18807;DHT22;9531;52.030;4.380;2022-09-09T04:37:38;15.80;99.90
18807;DHT22;9531;52.030;4.380;2022-09-09T04:40:06;15.70;99.90
18807;DHT22;9531;52.030;4.380;2022-09-09T04:42:37;15.70;99.90
18807;DHT22;9531;52.030;4.380;2022-09-09T04:45:06;15.80;99.90
18807;DHT22;9531;52.030;4.380;2022-09-09T04:47:33;15.80;99.90
18807;DHT22;9531;52.030;4.380;2022-09-09T04:50:01;15.70;99.90
18807;DHT22;9531;52.030;4.380;2022-09-09T04:52:28;15.80;99.90
18807;DHT22;9531;52.030;4.380;2022-09-09T04:54:55;15.80;99.90
18807;DHT22;9531;52.030;4.380;2022-09-09T04:57:23;15.70;99.90
18807;DHT22;9531;52.030;4.380;2022-09-09T04:59:51;15.70;99.90
18807;DHT22;9531;52.030;4.380;2022-09-09T05:02:18;15.70;99.90
18807;DHT22;9531;52.030;4.380;2022-09-09T05:04:45;15.70;99.90
18807;DHT22;9531;52.030;4.380;2022-09-09T05:07:13;15.70;99.90
18807;DHT22;9531;52.030;4.380;2022-09-09T05:09:40;15.70;99.90
18807;DHT22;9531;52.030;4.380;2022-09-09T05:12:07;15.70;99.90
18807;DHT22;9531;52.030;4.380;2022-09-09T05:14:36;15.70;99.90
18807;DHT22;9531;52.030;4.380;2022-09-09T05:17:05;15.70;99.90
18807;DHT22;9531;52.030;4.380;2022-09-09T05:19:32;15.70;99.90
18807;DHT22;9531;52.030;4.380;2022-09-09T05:21:59;15.70;99.90
18807;DHT22;9531;52.030;4.380;2022-09-09T05:24:27;15.70;99.90
18807;DHT22;9531;52.030;4.380;2022-09-09T05:26:54;15.70;99.90
18807;DHT22;9531;52.030;4.380;2022-09-09T05:29:25;15.70;99.90
18807;DHT22;9531;52.030;4.380;2022-09-09T05:31:58;15.70;99.90
18807;DHT22;9531;52.030;4.380;2022-09-09T05:34:26;15.70;99.90
18807;DHT22;9531;52.030;4.380;2022-09-09T05:36:53;15.70;99.90
18807;DHT22;9531;52.030;4.380;2022-09-09T05:39:20;15.70;99.90
18807;DHT22;9531;52.030;4.380;2022-09-09T05:41:51;15.70;99.90
18807;DHT22;9531;52.030;4.380;2022-09-09T05:44:18;15.80;99.90
18807;DHT22;9531;52.030;4.380;2022-09-09T05:46:46;15.80;99.90
18807;DHT22;9531;52.030;4.380;2022-09-09T05:49:13;15.90;99.90
18807;DHT22;9531;52.030;4.380;2022-09-09T05:51:43;15.90;99.90
18807;DHT22;9531;52.030;4.380;2022-09-09T05:54:10;15.90;99.90
18807;DHT22;9531;52.030;4.380;2022-09-09T05:56:39;16.00;99.90
18807;DHT22;9531;52.030;4.380;2022-09-09T05:59:06;16.10;99.90
18807;DHT22;9531;52.030;4.380;2022-09-09T06:01:35;16.20;99.90
18807;DHT22;9531;52.030;4.380;2022-09-09T06:04:06;16.20;99.90
18807;DHT22;9531;52.030;4.380;2022-09-09T06:06:34;16.30;99.90
18807;DHT22;9531;52.030;4.380;2022-09-09T06:09:06;16.30;99.90
18807;DHT22;9531;52.030;4.380;2022-09-09T06:11:37;16.40;99.90
18807;DHT22;9531;52.030;4.380;2022-09-09T06:14:05;16.40;99.90
18807;DHT22;9531;52.030;4.380;2022-09-09T06:16:32;16.40;99.90
18807;DHT22;9531;52.030;4.380;2022-09-09T06:19:00;16.40;99.90
18807;DHT22;9531;52.030;4.380;2022-09-09T06:21:29;16.40;99.90
18807;DHT22;9531;52.030;4.380;2022-09-09T06:23:57;16.40;99.90
18807;DHT22;9531;52.030;4.380;2022-09-09T06:26:27;16.40;99.90
18807;DHT22;9531;52.030;4.380;2022-09-09T06:28:55;16.40;99.90
18807;DHT22;9531;52.030;4.380;2022-09-09T06:31:24;16.50;99.90
18807;DHT22;9531;52.030;4.380;2022-09-09T06:33:53;16.50;99.90
18807;DHT22;9531;52.030;4.380;2022-09-09T06:36:22;16.40;99.90
18807;DHT22;9531;52.030;4.380;2022-09-09T06:38:49;16.40;99.90
18807;DHT22;9531;52.030;4.380;2022-09-09T06:41:18;16.40;99.90
18807;DHT22;9531;52.030;4.380;2022-09-09T06:43:47;16.40;99.90
18807;DHT22;9531;52.030;4.380;2022-09-09T06:46:16;16.50;99.90
18807;DHT22;9531;52.030;4.380;2022-09-09T06:48:44;16.50;99.90
18807;DHT22;9531;52.030;4.380;2022-09-09T06:51:13;16.50;99.90
18807;DHT22;9531;52.030;4.380;2022-09-09T06:53:42;16.50;99.90
18807;DHT22;9531;52.030;4.380;2022-09-09T06:56:22;16.50;99.90
18807;DHT22;9531;52.030;4.380;2022-09-09T06:58:51;16.50;99.90
18807;DHT22;9531;52.030;4.380;2022-09-09T07:01:20;16.50;99.90
18807;DHT22;9531;52.030;4.380;2022-09-09T07:03:48;16.60;99.90
18807;DHT22;9531;52.030;4.380;2022-09-09T07:06:17;16.60;99.90
18807;DHT22;9531;52.030;4.380;2022-09-09T07:08:51;16.60;99.90
18807;DHT22;9531;52.030;4.380;2022-09-09T07:11:19;16.70;99.90
18807;DHT22;9531;52.030;4.380;2022-09-09T07:13:46;16.70;99.90
18807;DHT22;9531;52.030;4.380;2022-09-09T07:16:17;16.70;99.90
18807;DHT22;9531;52.030;4.380;2022-09-09T07:18:44;16.70;99.90
18807;DHT22;9531;52.030;4.380;2022-09-09T07:21:12;16.70;99.90
18807;DHT22;9531;52.030;4.380;2022-09-09T07:23:41;16.70;99.90
18807;DHT22;9531;52.030;4.380;2022-09-09T07:26:10;16.70;99.90
18807;DHT22;9531;52.030;4.380;2022-09-09T07:28:37;16.70;99.90
18807;DHT22;9531;52.030;4.380;2022-09-09T07:31:06;16.70;99.90
18807;DHT22;9531;52.030;4.380;2022-09-09T07:33:35;16.60;99.90
18807;DHT22;9531;52.030;4.380;2022-09-09T07:36:04;16.70;99.90
18807;DHT22;9531;52.030;4.380;2022-09-09T07:38:32;16.70;99.90
18807;DHT22;9531;52.030;4.380;2022-09-09T07:41:04;16.70;99.90
18807;DHT22;9531;52.030;4.380;2022-09-09T07:43:33;16.70;99.90
18807;DHT22;9531;52.030;4.380;2022-09-09T07:46:01;16.60;99.90
18807;DHT22;9531;52.030;4.380;2022-09-09T07:48:28;16.70;99.90
18807;DHT22;9531;52.030;4.380;2022-09-09T07:51:10;16.70;99.90
18807;DHT22;9531;52.030;4.380;2022-09-09T07:53:40;16.70;99.90
18807;DHT22;9531;52.030;4.380;2022-09-09T07:56:20;16.70;99.90
18807;DHT22;9531;52.030;4.380;2022-09-09T07:58:49;16.70;99.90
18807;DHT22;9531;52.030;4.380;2022-09-09T08:01:18;16.70;99.90
18807;DHT22;9531;52.030;4.380;2022-09-09T08:04:10;16.80;99.90
18807;DHT22;9531;52.030;4.380;2022-09-09T08:06:55;16.80;99.90
18807;DHT22;9531;52.030;4.380;2022-09-09T08:09:32;16.90;99.90
18807;DHT22;9531;52.030;4.380;2022-09-09T08:12:31;16.80;99.90
18807;DHT22;9531;52.030;4.380;2022-09-09T08:15:27;16.90;99.90
18807;DHT22;9531;52.030;4.380;2022-09-09T08:17:54;16.90;99.90
18807;DHT22;9531;52.030;4.380;2022-09-09T08:20:22;16.90;99.90
18807;DHT22;9531;52.030;4.380;2022-09-09T08:22:54;17.00;99.90
18807;DHT22;9531;52.030;4.380;2022-09-09T08:25:22;17.00;99.90
18807;DHT22;9531;52.030;4.380;2022-09-09T08:27:49;17.00;99.90
18807;DHT22;9531;52.030;4.380;2022-09-09T08:30:16;17.00;99.90
18807;DHT22;9531;52.030;4.380;2022-09-09T08:32:44;17.00;99.90
18807;DHT22;9531;52.030;4.380;2022-09-09T08:35:11;17.00;99.90
18807;DHT22;9531;52.030;4.380;2022-09-09T08:37:38;17.00;99.90
18807;DHT22;9531;52.030;4.380;2022-09-09T08:40:11;17.00;99.90
18807;DHT22;9531;52.030;4.380;2022-09-09T08:42:47;17.00;99.90
18807;DHT22;9531;52.030;4.380;2022-09-09T08:45:25;17.10;99.90
18807;DHT22;9531;52.030;4.380;2022-09-09T08:48:13;17.10;99.90
18807;DHT22;9531;52.030;4.380;2022-09-09T08:50:43;17.10;99.90
18807;DHT22;9531;52.030;4.380;2022-09-09T08:53:16;17.10;99.90
18807;DHT22;9531;52.030;4.380;2022-09-09T08:55:49;17.20;99.90
18807;DHT22;9531;52.030;4.380;2022-09-09T08:58:23;17.20;99.90
18807;DHT22;9531;52.030;4.380;2022-09-09T09:01:10;17.20;99.90
18807;DHT22;9531;52.030;4.380;2022-09-09T09:03:48;17.20;99.90
18807;DHT22;9531;52.030;4.380;2022-09-09T09:06:30;17.20;99.90
18807;DHT22;9531;52.030;4.380;2022-09-09T09:09:07;17.20;99.90
18807;DHT22;9531;52.030;4.380;2022-09-09T09:11:40;17.20;99.90
18807;DHT22;9531;52.030;4.380;2022-09-09T09:14:14;17.30;99.90
18807;DHT22;9531;52.030;4.380;2022-09-09T09:16:52;17.30;99.90
18807;DHT22;9531;52.030;4.380;2022-09-09T09:19:24;17.30;99.90
18807;DHT22;9531;52.030;4.380;2022-09-09T09:21:58;17.30;99.90
18807;DHT22;9531;52.030;4.380;2022-09-09T09:24:30;17.30;99.90
18807;DHT22;9531;52.030;4.380;2022-09-09T09:27:13;17.30;99.90
18807;DHT22;9531;52.030;4.380;2022-09-09T09:29:42;17.30;99.90
18807;DHT22;9531;52.030;4.380;2022-09-09T09:32:13;17.30;99.90
18807;DHT22;9531;52.030;4.380;2022-09-09T09:34:41;17.40;99.90
18807;DHT22;9531;52.030;4.380;2022-09-09T09:37:15;17.40;99.90
18807;DHT22;9531;52.030;4.380;2022-09-09T09:39:44;17.40;99.90
18807;DHT22;9531;52.030;4.380;2022-09-09T09:42:13;17.50;99.90
18807;DHT22;9531;52.030;4.380;2022-09-09T09:44:41;17.60;99.90
18807;DHT22;9531;52.030;4.380;2022-09-09T09:47:10;17.70;99.90
18807;DHT22;9531;52.030;4.380;2022-09-09T09:49:38;17.80;99.90
18807;DHT22;9531;52.030;4.380;2022-09-09T09:52:06;17.90;99.90
18807;DHT22;9531;52.030;4.380;2022-09-09T09:54:41;18.00;99.90
18807;DHT22;9531;52.030;4.380;2022-09-09T09:57:13;18.00;99.90
18807;DHT22;9531;52.030;4.380;2022-09-09T09:59:45;18.00;99.90
18807;DHT22;9531;52.030;4.380;2022-09-09T10:02:18;17.90;99.90
18807;DHT22;9531;52.030;4.380;2022-09-09T10:04:47;17.90;99.90
18807;DHT22;9531;52.030;4.380;2022-09-09T10:07:18;17.90;99.90
18807;DHT22;9531;52.030;4.380;2022-09-09T10:09:52;17.80;99.90
18807;DHT22;9531;52.030;4.380;2022-09-09T10:12:29;17.80;99.90
18807;DHT22;9531;52.030;4.380;2022-09-09T10:15:05;17.70;99.90
18807;DHT22;9531;52.030;4.380;2022-09-09T10:17:38;17.60;99.90
18807;DHT22;9531;52.030;4.380;2022-09-09T10:20:27;17.50;99.90
18807;DHT22;9531;52.030;4.380;2022-09-09T10:23:06;17.60;99.90
18807;DHT22;9531;52.030;4.380;2022-09-09T10:25:54;17.50;99.90
18807;DHT22;9531;52.030;4.380;2022-09-09T10:31:21;17.40;99.90
18807;DHT22;9531;52.030;4.380;2022-09-09T10:33:57;17.40;99.90
18807;DHT22;9531;52.030;4.380;2022-09-09T10:36:27;17.40;99.90
18807;DHT22;9531;52.030;4.380;2022-09-09T10:38:59;17.30;99.90
18807;DHT22;9531;52.030;4.380;2022-09-09T10:41:47;17.40;99.90
18807;DHT22;9531;52.030;4.380;2022-09-09T10:44:35;17.40;99.90
18807;DHT22;9531;52.030;4.380;2022-09-09T10:47:32;17.40;99.90
18807;DHT22;9531;52.030;4.380;2022-09-09T10:50:14;17.50;99.90
18807;DHT22;9531;52.030;4.380;2022-09-09T10:52:52;17.60;99.90
18807;DHT22;9531;52.030;4.380;2022-09-09T10:55:27;17.70;99.90
18807;DHT22;9531;52.030;4.380;2022-09-09T10:57:58;17.70;99.90
18807;DHT22;9531;52.030;4.380;2022-09-09T11:00:36;17.80;99.90
18807;DHT22;9531;52.030;4.380;2022-09-09T11:03:06;17.80;99.90
18807;DHT22;9531;52.030;4.380;2022-09-09T11:05:41;17.90;99.90
18807;DHT22;9531;52.030;4.380;2022-09-09T11:08:14;18.00;99.90
18807;DHT22;9531;52.030;4.380;2022-09-09T11:10:48;18.00;99.90
18807;DHT22;9531;52.030;4.380;2022-09-09T11:13:23;18.10;99.90
18807;DHT22;9531;52.030;4.380;2022-09-09T11:16:11;18.10;99.90
18807;DHT22;9531;52.030;4.380;2022-09-09T11:18:42;18.20;99.90
18807;DHT22;9531;52.030;4.380;2022-09-09T11:21:16;18.20;99.90
18807;DHT22;9531;52.030;4.380;2022-09-09T11:23:50;18.20;99.90
18807;DHT22;9531;52.030;4.380;2022-09-09T11:26:29;18.20;99.90
18807;DHT22;9531;52.030;4.380;2022-09-09T11:32:04;18.20;99.90
18807;DHT22;9531;52.030;4.380;2022-09-09T11:34:43;18.10;99.90
18807;DHT22;9531;52.030;4.380;2022-09-09T11:37:37;18.10;99.90
18807;DHT22;9531;52.030;4.380;2022-09-09T11:40:15;18.00;99.90
18807;DHT22;9531;52.030;4.380;2022-09-09T11:43:02;17.90;99.90
18807;DHT22;9531;52.030;4.380;2022-09-09T11:45:32;17.80;99.90
18807;DHT22;9531;52.030;4.380;2022-09-09T11:48:03;17.80;99.90
18807;DHT22;9531;52.030;4.380;2022-09-09T11:50:36;17.70;99.90
18807;DHT22;9531;52.030;4.380;2022-09-09T11:56:06;17.70;99.90
18807;DHT22;9531;52.030;4.380;2022-09-09T11:58:39;17.70;99.90
18807;DHT22;9531;52.030;4.380;2022-09-09T12:01:15;17.80;99.90
18807;DHT22;9531;52.030;4.380;2022-09-09T12:04:01;17.80;99.90
18807;DHT22;9531;52.030;4.380;2022-09-09T12:06:42;17.90;99.90
18807;DHT22;9531;52.030;4.380;2022-09-09T12:09:23;17.90;99.90
18807;DHT22;9531;52.030;4.380;2022-09-09T12:11:51;18.00;99.90
18807;DHT22;9531;52.030;4.380;2022-09-09T12:14:34;18.10;99.90
18807;DHT22;9531;52.030;4.380;2022-09-09T12:17:10;18.10;99.90
18807;DHT22;9531;52.030;4.380;2022-09-09T12:19:45;18.20;99.90
18807;DHT22;9531;52.030;4.380;2022-09-09T12:22:20;18.20;99.90
18807;DHT22;9531;52.030;4.380;2022-09-09T12:24:56;18.30;99.90
18807;DHT22;9531;52.030;4.380;2022-09-09T12:27:30;18.30;99.90
18807;DHT22;9531;52.030;4.380;2022-09-09T12:30:02;18.30;99.90
18807;DHT22;9531;52.030;4.380;2022-09-09T12:32:30;18.40;99.90
18807;DHT22;9531;52.030;4.380;2022-09-09T12:35:00;18.40;99.90
18807;DHT22;9531;52.030;4.380;2022-09-09T12:37:33;18.50;99.90
18807;DHT22;9531;52.030;4.380;2022-09-09T12:40:02;18.50;99.90
18807;DHT22;9531;52.030;4.380;2022-09-09T12:42:30;18.50;99.90
18807;DHT22;9531;52.030;4.380;2022-09-09T12:45:00;18.50;99.90
18807;DHT22;9531;52.030;4.380;2022-09-09T12:47:37;18.60;99.90
18807;DHT22;9531;52.030;4.380;2022-09-09T12:50:15;18.60;99.90
18807;DHT22;9531;52.030;4.380;2022-09-09T12:52:43;18.70;99.90
18807;DHT22;9531;52.030;4.380;2022-09-09T12:55:18;18.70;99.90
18807;DHT22;9531;52.030;4.380;2022-09-09T12:57:45;18.70;99.90
18807;DHT22;9531;52.030;4.380;2022-09-09T13:00:15;18.70;99.90
18807;DHT22;9531;52.030;4.380;2022-09-09T13:02:48;18.80;99.90
18807;DHT22;9531;52.030;4.380;2022-09-09T13:05:22;18.90;99.90
18807;DHT22;9531;52.030;4.380;2022-09-09T13:08:00;18.90;99.90
18807;DHT22;9531;52.030;4.380;2022-09-09T13:10:30;19.00;99.90
18807;DHT22;9531;52.030;4.380;2022-09-09T13:12:59;19.10;99.90
18807;DHT22;9531;52.030;4.380;2022-09-09T13:15:28;19.10;99.90
18807;DHT22;9531;52.030;4.380;2022-09-09T13:17:58;19.10;99.90
18807;DHT22;9531;52.030;4.380;2022-09-09T13:20:28;19.10;99.90
18807;DHT22;9531;52.030;4.380;2022-09-09T13:22:57;19.10;99.90
18807;DHT22;9531;52.030;4.380;2022-09-09T13:25:26;19.10;99.90
18807;DHT22;9531;52.030;4.380;2022-09-09T13:27:58;19.10;99.90
18807;DHT22;9531;52.030;4.380;2022-09-09T13:30:29;19.10;99.90
18807;DHT22;9531;52.030;4.380;2022-09-09T13:33:21;19.00;99.90
18807;DHT22;9531;52.030;4.380;2022-09-09T13:35:52;19.00;99.90
18807;DHT22;9531;52.030;4.380;2022-09-09T13:38:21;18.90;99.90
18807;DHT22;9531;52.030;4.380;2022-09-09T13:40:56;18.80;99.90
18807;DHT22;9531;52.030;4.380;2022-09-09T13:43:25;18.70;99.90
18807;DHT22;9531;52.030;4.380;2022-09-09T13:45:55;18.60;99.90
18807;DHT22;9531;52.030;4.380;2022-09-09T13:48:24;18.40;99.90
18807;DHT22;9531;52.030;4.380;2022-09-09T13:51:01;18.30;99.90
18807;DHT22;9531;52.030;4.380;2022-09-09T13:53:28;18.20;99.90
18807;DHT22;9531;52.030;4.380;2022-09-09T13:55:56;18.10;99.90
18807;DHT22;9531;52.030;4.380;2022-09-09T13:58:24;18.00;99.90
18807;DHT22;9531;52.030;4.380;2022-09-09T14:00:51;17.90;99.90
18807;DHT22;9531;52.030;4.380;2022-09-09T14:03:18;17.90;99.90
18807;DHT22;9531;52.030;4.380;2022-09-09T14:05:46;17.80;99.90
18807;DHT22;9531;52.030;4.380;2022-09-09T14:08:26;17.70;99.90
18807;DHT22;9531;52.030;4.380;2022-09-09T14:11:02;17.70;99.90
18807;DHT22;9531;52.030;4.380;2022-09-09T14:13:29;17.70;99.90
18807;DHT22;9531;52.030;4.380;2022-09-09T14:15:56;17.70;99.90
18807;DHT22;9531;52.030;4.380;2022-09-09T14:18:23;17.70;99.90
18807;DHT22;9531;52.030;4.380;2022-09-09T14:20:51;17.70;99.90
18807;DHT22;9531;52.030;4.380;2022-09-09T14:23:18;17.80;99.90
18807;DHT22;9531;52.030;4.380;2022-09-09T14:25:48;17.80;99.90
18807;DHT22;9531;52.030;4.380;2022-09-09T14:28:15;17.80;99.90
18807;DHT22;9531;52.030;4.380;2022-09-09T14:30:43;18.00;99.90
18807;DHT22;9531;52.030;4.380;2022-09-09T14:33:15;18.00;99.90
18807;DHT22;9531;52.030;4.380;2022-09-09T14:35:43;18.30;99.90
18807;DHT22;9531;52.030;4.380;2022-09-09T14:38:10;18.50;99.90
18807;DHT22;9531;52.030;4.380;2022-09-09T14:40:37;18.70;99.90
18807;DHT22;9531;52.030;4.380;2022-09-09T14:43:06;19.10;99.90
18807;DHT22;9531;52.030;4.380;2022-09-09T14:45:33;19.30;99.90
18807;DHT22;9531;52.030;4.380;2022-09-09T14:48:03;19.60;99.90
18807;DHT22;9531;52.030;4.380;2022-09-09T14:50:30;19.70;99.90
18807;DHT22;9531;52.030;4.380;2022-09-09T14:52:57;19.90;99.90
18807;DHT22;9531;52.030;4.380;2022-09-09T14:55:24;20.00;99.90
18807;DHT22;9531;52.030;4.380;2022-09-09T14:57:54;20.00;99.90
18807;DHT22;9531;52.030;4.380;2022-09-09T15:00:22;20.10;99.90
18807;DHT22;9531;52.030;4.380;2022-09-09T15:02:52;20.20;99.90
18807;DHT22;9531;52.030;4.380;2022-09-09T15:05:19;20.20;99.90
18807;DHT22;9531;52.030;4.380;2022-09-09T15:07:47;20.30;99.90
18807;DHT22;9531;52.030;4.380;2022-09-09T15:10:16;20.30;99.90
18807;DHT22;9531;52.030;4.380;2022-09-09T15:12:45;20.40;99.90
18807;DHT22;9531;52.030;4.380;2022-09-09T15:15:14;20.40;99.90
18807;DHT22;9531;52.030;4.380;2022-09-09T15:17:45;20.40;99.90
18807;DHT22;9531;52.030;4.380;2022-09-09T15:20:14;20.40;99.90
18807;DHT22;9531;52.030;4.380;2022-09-09T15:22:42;20.40;99.90
18807;DHT22;9531;52.030;4.380;2022-09-09T15:25:09;20.30;99.90
18807;DHT22;9531;52.030;4.380;2022-09-09T15:27:37;20.20;99.90
18807;DHT22;9531;52.030;4.380;2022-09-09T15:30:08;20.20;99.90
18807;DHT22;9531;52.030;4.380;2022-09-09T15:32:36;20.10;99.90
18807;DHT22;9531;52.030;4.380;2022-09-09T15:35:08;20.10;99.90
18807;DHT22;9531;52.030;4.380;2022-09-09T15:37:35;20.00;99.90
18807;DHT22;9531;52.030;4.380;2022-09-09T15:40:03;19.90;99.90
18807;DHT22;9531;52.030;4.380;2022-09-09T15:42:30;19.70;99.90
18807;DHT22;9531;52.030;4.380;2022-09-09T15:44:57;19.60;99.90
18807;DHT22;9531;52.030;4.380;2022-09-09T15:47:24;19.60;99.90
18807;DHT22;9531;52.030;4.380;2022-09-09T15:49:59;19.40;99.90
18807;DHT22;9531;52.030;4.380;2022-09-09T15:52:33;19.40;99.90
18807;DHT22;9531;52.030;4.380;2022-09-09T15:55:01;19.30;99.90
18807;DHT22;9531;52.030;4.380;2022-09-09T15:57:30;19.20;99.90
18807;DHT22;9531;52.030;4.380;2022-09-09T15:59:59;19.30;99.90
18807;DHT22;9531;52.030;4.380;2022-09-09T16:02:28;19.30;99.90
18807;DHT22;9531;52.030;4.380;2022-09-09T16:04:55;19.30;99.90
18807;DHT22;9531;52.030;4.380;2022-09-09T16:07:23;19.30;99.90
18807;DHT22;9531;52.030;4.380;2022-09-09T16:09:51;19.30;99.90
18807;DHT22;9531;52.030;4.380;2022-09-09T16:12:19;19.40;99.90
18807;DHT22;9531;52.030;4.380;2022-09-09T16:14:47;19.30;99.90
18807;DHT22;9531;52.030;4.380;2022-09-09T16:17:15;19.40;99.90
18807;DHT22;9531;52.030;4.380;2022-09-09T16:19:42;19.40;99.90
18807;DHT22;9531;52.030;4.380;2022-09-09T16:22:09;19.40;99.90
18807;DHT22;9531;52.030;4.380;2022-09-09T16:24:38;19.40;99.90